createdAt,value
2023-04-28T00:01:38.110Z,5.72
2023-04-28T00:04:04.807Z,3.85
2023-04-28T00:06:31.352Z,4.75
2023-04-28T00:08:57.728Z,4.97
2023-04-28T00:11:24.064Z,5.22
2023-04-28T00:13:50.408Z,3.92
2023-04-28T00:16:16.880Z,4.95
2023-04-28T00:18:43.229Z,4.25
2023-04-28T00:21:09.584Z,6.07
2023-04-28T00:23:36.016Z,5.63
2023-04-28T00:26:02.363Z,5.53
2023-04-28T00:30:58.001Z,5.45
2023-04-28T00:33:24.366Z,5.73
2023-04-28T00:35:58.428Z,5.55
2023-04-28T00:38:24.768Z,6.22
2023-04-28T00:40:51.105Z,7.10
2023-04-28T00:43:17.593Z,6.40
2023-04-28T00:45:44.000Z,6.10
2023-04-28T00:48:10.400Z,6.95
2023-04-28T00:50:36.882Z,6.80
2023-04-28T00:53:03.255Z,5.53
2023-04-28T00:55:31.632Z,4.07
2023-04-28T00:57:58.198Z,5.90
2023-04-28T01:00:24.596Z,5.10
2023-04-28T01:02:52.475Z,4.28
2023-04-28T01:05:19.331Z,4.78
2023-04-28T01:07:45.704Z,5.20
2023-04-28T01:10:12.074Z,4.20
2023-04-28T01:12:38.487Z,4.80
2023-04-28T01:15:05.137Z,5.32
2023-04-28T01:17:31.590Z,5.38
2023-04-28T01:19:57.986Z,5.20
2023-04-28T01:22:24.354Z,3.53
2023-04-28T01:24:50.713Z,4.68
2023-04-28T01:27:17.117Z,5.40
2023-04-28T01:29:43.518Z,4.35
2023-04-28T01:32:09.890Z,4.35
2023-04-28T01:34:36.445Z,4.77
2023-04-28T01:37:02.777Z,3.08
2023-04-28T01:39:29.140Z,4.20
2023-04-28T01:41:55.598Z,5.60
2023-04-28T01:44:21.946Z,6.63
2023-04-28T01:46:48.284Z,7.90
2023-04-28T01:49:14.677Z,6.03
2023-04-28T01:51:41.026Z,7.75
2023-04-28T01:54:07.371Z,9.15
2023-04-28T01:56:33.744Z,9.93
2023-04-28T01:59:00.106Z,7.37
2023-04-28T02:01:26.527Z,10.05
2023-04-28T02:03:53.209Z,9.50
2023-04-28T02:06:19.659Z,9.52
2023-04-28T02:08:46.003Z,10.40
2023-04-28T02:11:12.696Z,10.17
2023-04-28T02:13:39.056Z,9.90
2023-04-28T02:16:05.679Z,9.65
2023-04-28T02:18:32.130Z,10.85
2023-04-28T02:20:58.504Z,8.75
2023-04-28T02:23:24.852Z,10.43
2023-04-28T02:26:00.149Z,9.88
2023-04-28T02:28:26.605Z,10.90
2023-04-28T02:30:52.936Z,10.38
2023-04-28T02:33:19.367Z,7.65
2023-04-28T02:35:45.719Z,8.27
2023-04-28T02:38:12.073Z,8.23
2023-04-28T02:40:38.510Z,10.55
2023-04-28T02:43:04.832Z,8.82
2023-04-28T02:45:31.251Z,9.18
2023-04-28T02:47:57.700Z,8.90
2023-04-28T02:50:24.174Z,10.10
2023-04-28T02:52:50.514Z,8.45
2023-04-28T02:55:16.978Z,6.55
2023-04-28T02:57:43.548Z,8.52
2023-04-28T03:00:10.095Z,6.93
2023-04-28T03:02:36.682Z,6.07
2023-04-28T03:05:03.284Z,8.98
2023-04-28T03:07:29.932Z,7.70
2023-04-28T03:09:56.512Z,6.70
2023-04-28T03:12:22.949Z,6.37
2023-04-28T03:14:49.382Z,7.43
2023-04-28T03:17:15.960Z,6.55
2023-04-28T03:19:42.316Z,7.20
2023-04-28T03:22:08.665Z,7.55
2023-04-28T03:24:35.198Z,6.00
2023-04-28T03:27:01.552Z,9.10
2023-04-28T03:29:28.006Z,7.95
2023-04-28T03:31:54.631Z,5.70
2023-04-28T03:34:21.129Z,4.50
2023-04-28T03:36:47.497Z,7.97
2023-04-28T03:39:13.928Z,8.50
2023-04-28T03:41:40.279Z,7.82
2023-04-28T03:44:06.688Z,7.15
2023-04-28T03:46:33.248Z,6.93
2023-04-28T03:48:59.740Z,6.77
2023-04-28T03:51:26.087Z,8.52
2023-04-28T03:53:52.460Z,8.82
2023-04-28T03:56:19.079Z,7.65
2023-04-28T03:58:45.461Z,11.45
2023-04-28T04:01:11.881Z,10.40
2023-04-28T04:03:39.153Z,9.32
2023-04-28T04:06:05.952Z,8.20
2023-04-28T04:08:32.497Z,8.55
2023-04-28T04:10:59.142Z,5.20
2023-04-28T04:13:25.578Z,8.90
2023-04-28T04:15:52.228Z,10.02
2023-04-28T04:18:18.855Z,8.80
2023-04-28T04:20:45.206Z,7.70
2023-04-28T04:23:11.772Z,11.30
2023-04-28T04:25:38.257Z,12.13
2023-04-28T04:28:04.746Z,7.18
2023-04-28T04:30:31.233Z,9.85
2023-04-28T04:32:57.729Z,7.70
2023-04-28T04:35:24.540Z,10.02
2023-04-28T04:37:51.061Z,8.93
2023-04-28T04:40:17.433Z,8.73
2023-04-28T04:42:43.777Z,8.38
2023-04-28T04:45:10.240Z,6.35
2023-04-28T04:47:36.760Z,8.38
2023-04-28T04:50:03.221Z,6.27
2023-04-28T04:52:29.818Z,5.80
2023-04-28T04:54:56.431Z,5.97
2023-04-28T04:57:22.870Z,6.03
2023-04-28T04:59:49.429Z,6.07
2023-04-28T05:02:15.956Z,6.13
2023-04-28T05:04:42.632Z,6.55
2023-04-28T05:07:09.241Z,5.63
2023-04-28T05:09:35.722Z,5.65
2023-04-28T05:12:02.405Z,7.05
2023-04-28T05:14:28.987Z,5.70
2023-04-28T05:16:55.600Z,5.93
2023-04-28T05:19:21.971Z,6.93
2023-04-28T05:21:48.557Z,5.47
2023-04-28T05:24:15.379Z,6.63
2023-04-28T05:26:41.997Z,5.67
2023-04-28T05:29:08.497Z,5.43
2023-04-28T05:31:34.976Z,4.53
2023-04-28T05:34:01.467Z,3.92
2023-04-28T05:36:28.108Z,4.65
2023-04-28T05:38:54.691Z,3.67
2023-04-28T05:41:21.202Z,4.63
2023-04-28T05:43:47.592Z,5.28
2023-04-28T05:46:28.447Z,5.60
2023-04-28T05:48:57.036Z,4.30
2023-04-28T05:51:23.601Z,4.60
2023-04-28T05:53:49.956Z,4.50
2023-04-28T05:56:16.609Z,4.50
2023-04-28T05:58:43.214Z,4.50
2023-04-28T06:01:09.580Z,4.00
2023-04-28T06:03:36.202Z,4.97
2023-04-28T06:06:04.129Z,5.22
2023-04-28T06:08:32.333Z,4.43
2023-04-28T06:10:58.788Z,4.55
2023-04-28T06:13:25.136Z,5.13
2023-04-28T06:15:51.790Z,3.47
2023-04-28T06:18:18.490Z,4.10
2023-04-28T06:20:44.815Z,4.70
2023-04-28T06:23:11.167Z,4.30
2023-04-28T06:25:37.631Z,4.70
2023-04-28T06:28:04.009Z,3.00
2023-04-28T06:30:30.388Z,3.92
2023-04-28T06:32:57.008Z,4.65
2023-04-28T06:35:23.544Z,4.90
2023-04-28T06:37:49.933Z,4.22
2023-04-28T06:40:16.374Z,6.17
2023-04-28T06:42:42.778Z,9.82
2023-04-28T06:45:09.325Z,9.25
2023-04-28T06:47:35.887Z,8.68
2023-04-28T06:50:02.283Z,9.18
2023-04-28T06:52:38.656Z,7.20
2023-04-28T06:55:06.852Z,9.40
2023-04-28T06:57:34.288Z,10.52
2023-04-28T07:00:00.768Z,10.52
2023-04-28T07:02:27.543Z,10.77
2023-04-28T07:04:54.133Z,12.67
2023-04-28T07:07:20.624Z,11.40
2023-04-28T07:09:47.013Z,10.60
2023-04-28T07:12:13.484Z,9.48
2023-04-28T07:14:39.951Z,6.22
2023-04-28T07:17:06.561Z,8.17
2023-04-28T07:19:33.026Z,7.10
2023-04-28T07:21:59.521Z,8.00
2023-04-28T07:24:26.019Z,8.07
2023-04-28T07:26:52.479Z,8.88
2023-04-28T07:29:18.839Z,9.07
2023-04-28T07:31:45.362Z,7.53
2023-04-28T07:34:11.834Z,8.77
2023-04-28T07:36:38.321Z,8.05
2023-04-28T07:39:04.900Z,8.52
2023-04-28T07:41:36.425Z,9.00
2023-04-28T07:44:02.923Z,6.97
2023-04-28T07:46:29.424Z,6.30
2023-04-28T07:48:55.839Z,8.15
2023-04-28T07:51:22.368Z,9.65
2023-04-28T07:53:48.851Z,8.93
2023-04-28T07:56:15.357Z,7.90
2023-04-28T07:58:41.906Z,5.40
2023-04-28T08:01:08.425Z,10.35
2023-04-28T08:03:35.338Z,10.23
2023-04-28T08:06:02.383Z,9.57
2023-04-28T08:08:30.605Z,10.27
2023-04-28T08:10:57.087Z,8.93
2023-04-28T08:13:23.562Z,8.88
2023-04-28T08:15:50.172Z,9.90
2023-04-28T08:18:16.972Z,8.63
2023-04-28T08:20:43.473Z,11.10
2023-04-28T08:23:10.057Z,11.07
2023-04-28T08:25:36.447Z,8.10
2023-04-28T08:28:02.823Z,8.38
2023-04-28T08:30:29.828Z,9.77
2023-04-28T08:32:56.332Z,10.15
2023-04-28T08:35:22.693Z,7.45
2023-04-28T08:37:49.334Z,8.98
2023-04-28T08:40:15.937Z,10.43
2023-04-28T08:42:42.599Z,9.60
2023-04-28T08:45:13.861Z,9.27
2023-04-28T08:47:42.287Z,9.25
2023-04-28T08:50:09.052Z,9.20
2023-04-28T08:52:35.920Z,8.82
2023-04-28T08:55:10.676Z,9.63
2023-04-28T08:57:44.599Z,10.07
2023-04-28T09:00:12.412Z,11.27
2023-04-28T09:02:39.781Z,8.27
2023-04-28T09:05:11.094Z,12.00
2023-04-28T09:07:37.949Z,8.43
2023-04-28T09:10:21.585Z,10.73
2023-04-28T09:12:51.516Z,9.02
2023-04-28T09:15:28.061Z,8.68
2023-04-28T09:17:54.709Z,5.97
2023-04-28T09:20:22.967Z,9.30
2023-04-28T09:22:50.573Z,7.75
2023-04-28T09:25:18.386Z,7.75
2023-04-28T09:27:44.923Z,8.32
2023-04-28T09:30:12.395Z,7.80
2023-04-28T09:32:38.968Z,6.43
2023-04-28T09:35:05.726Z,7.93
2023-04-28T09:37:32.320Z,6.70
2023-04-28T09:40:07.688Z,7.47
2023-04-28T09:42:42.156Z,7.88
2023-04-28T09:45:13.523Z,7.63
2023-04-28T09:47:41.445Z,8.40
2023-04-28T09:50:11.127Z,8.63
2023-04-28T09:52:38.054Z,8.38
2023-04-28T09:55:07.287Z,7.95
2023-04-28T09:57:35.266Z,7.70
2023-04-28T10:00:03.815Z,7.28
2023-04-28T10:05:01.092Z,7.40
2023-04-28T10:07:28.136Z,7.82
2023-04-28T10:09:55.623Z,7.47
2023-04-28T10:12:24.337Z,8.93
2023-04-28T10:14:51.764Z,8.75
2023-04-28T10:17:18.233Z,9.55
2023-04-28T10:19:46.990Z,10.32
2023-04-28T10:22:28.509Z,9.07
2023-04-28T10:25:13.251Z,10.07
2023-04-28T10:27:45.485Z,10.68
2023-04-28T10:32:46.251Z,9.98
2023-04-28T10:35:22.534Z,11.60
2023-04-28T10:38:14.016Z,11.50
2023-04-28T10:40:44.635Z,11.20
2023-04-28T10:43:33.045Z,11.05
2023-04-28T10:46:00.405Z,9.85
2023-04-28T10:48:26.872Z,11.17
2023-04-28T10:51:05.659Z,10.48
2023-04-28T10:53:44.074Z,12.68
2023-04-28T10:56:12.215Z,12.80
2023-04-28T10:58:39.403Z,12.25
2023-04-28T11:01:21.168Z,12.07
2023-04-28T11:03:48.152Z,11.80
2023-04-28T11:06:18.162Z,11.27
2023-04-28T11:08:44.642Z,11.02
2023-04-28T11:11:15.194Z,10.65
2023-04-28T11:13:42.804Z,9.37
2023-04-28T11:16:09.534Z,8.95
2023-04-28T11:18:56.870Z,8.18
2023-04-28T11:21:25.699Z,8.00
2023-04-28T11:23:52.278Z,10.15
2023-04-28T11:26:19.801Z,12.27
2023-04-28T11:28:49.951Z,13.30
2023-04-28T11:31:17.761Z,10.57
2023-04-28T11:33:46.598Z,11.95
2023-04-28T11:36:42.780Z,11.48
2023-04-28T11:39:10.816Z,11.20
2023-04-28T11:41:38.574Z,9.80
2023-04-28T11:44:11.898Z,10.57
2023-04-28T11:46:45.777Z,12.98
2023-04-28T11:49:12.328Z,12.68
2023-04-28T11:51:39.048Z,12.10
2023-04-28T11:54:06.457Z,11.73
2023-04-28T11:56:36.985Z,11.43
2023-04-28T11:59:07.355Z,11.63
2023-04-28T12:01:34.518Z,10.43
2023-04-28T12:04:01.938Z,11.30
2023-04-28T12:06:28.879Z,9.27
2023-04-28T12:08:55.743Z,9.68
2023-04-28T12:11:22.762Z,9.27
2023-04-28T12:14:08.784Z,9.88
2023-04-28T12:16:43.465Z,8.77
2023-04-28T12:19:11.313Z,11.45
2023-04-28T12:21:39.092Z,11.52
2023-04-28T12:24:19.174Z,10.30
2023-04-28T12:26:46.141Z,10.00
2023-04-28T12:29:38.361Z,9.33
2023-04-28T12:32:06.452Z,9.60
2023-04-28T12:34:33.147Z,8.63
2023-04-28T12:37:01.121Z,8.10
2023-04-28T12:39:28.027Z,7.90
2023-04-28T12:41:54.396Z,6.90
2023-04-28T12:44:21.849Z,7.47
2023-04-28T12:46:48.664Z,7.00
2023-04-28T12:49:15.162Z,7.10
2023-04-28T12:51:42.139Z,7.35
2023-04-28T12:54:08.699Z,6.40
2023-04-28T12:56:35.242Z,6.53
2023-04-28T12:59:01.928Z,6.07
2023-04-28T13:01:28.565Z,6.15
2023-04-28T13:03:55.690Z,7.07
2023-04-28T13:06:22.954Z,5.60
2023-04-28T13:08:49.352Z,6.10
2023-04-28T13:11:22.918Z,5.78
2023-04-28T13:13:49.954Z,5.80
2023-04-28T13:16:16.456Z,5.97
2023-04-28T13:18:43.022Z,6.20
2023-04-28T13:21:09.619Z,6.13
2023-04-28T13:23:36.104Z,5.93
2023-04-28T13:26:02.646Z,6.30
2023-04-28T13:28:29.182Z,6.45
2023-04-28T13:30:55.528Z,6.20
2023-04-28T13:33:21.887Z,6.50
2023-04-28T13:35:48.276Z,6.45
2023-04-28T13:38:14.808Z,6.75
2023-04-28T13:40:41.333Z,5.97
2023-04-28T13:43:07.817Z,6.00
2023-04-28T13:45:34.355Z,5.97
2023-04-28T13:48:00.951Z,6.32
2023-04-28T13:50:27.474Z,6.93
2023-04-28T13:52:53.984Z,8.02
2023-04-28T13:55:20.647Z,8.53
2023-04-28T13:57:47.281Z,8.00
2023-04-28T14:00:14.320Z,7.95
2023-04-28T14:02:40.926Z,8.82
2023-04-28T14:05:07.900Z,7.72
2023-04-28T14:07:34.378Z,8.67
2023-04-28T14:10:00.726Z,7.95
2023-04-28T14:12:27.888Z,8.82
2023-04-28T14:14:54.344Z,8.55
2023-04-28T14:17:29.201Z,8.13
2023-04-28T14:19:55.731Z,7.90
2023-04-28T14:22:22.199Z,7.82
2023-04-28T14:24:49.049Z,7.43
2023-04-28T14:27:15.840Z,8.15
2023-04-28T14:29:42.315Z,8.63
2023-04-28T14:32:08.937Z,7.20
2023-04-28T14:34:35.467Z,7.55
2023-04-28T14:37:02.032Z,6.90
2023-04-28T14:39:29.320Z,7.30
2023-04-28T14:41:55.797Z,7.15
2023-04-28T14:44:22.249Z,6.88
2023-04-28T14:46:48.762Z,7.20
2023-04-28T14:49:15.343Z,6.57
2023-04-28T14:51:41.853Z,6.07
2023-04-28T14:54:09.450Z,6.18
2023-04-28T14:56:35.931Z,6.10
2023-04-28T14:59:02.742Z,5.68
2023-04-28T15:01:30.853Z,6.20
2023-04-28T15:03:57.467Z,5.78
2023-04-28T15:06:23.911Z,5.70
2023-04-28T15:08:50.397Z,4.75
2023-04-28T15:11:16.948Z,4.80
2023-04-28T15:13:43.450Z,4.37
2023-04-28T15:16:09.920Z,4.40
2023-04-28T15:18:36.669Z,4.55
2023-04-28T15:21:03.047Z,4.85
2023-04-28T15:23:29.500Z,4.18
2023-04-28T15:25:55.839Z,3.80
2023-04-28T15:28:22.190Z,3.30
2023-04-28T15:30:48.574Z,3.50
2023-04-28T15:33:14.954Z,2.90
2023-04-28T15:35:41.338Z,3.25
2023-04-28T15:38:07.826Z,3.40
2023-04-28T15:40:34.203Z,3.22
2023-04-28T15:43:00.580Z,3.58
2023-04-28T15:45:27.117Z,3.28
2023-04-28T15:47:53.630Z,3.80
2023-04-28T15:50:20.548Z,4.20
2023-04-28T15:52:47.437Z,3.35
2023-04-28T15:55:14.387Z,3.45
2023-04-28T15:57:40.965Z,3.35
2023-04-28T16:00:07.806Z,2.65
2023-04-28T16:02:34.393Z,3.17
2023-04-28T16:05:00.798Z,2.90
2023-04-28T16:07:27.238Z,3.00
2023-04-28T16:09:53.691Z,2.60
2023-04-28T16:12:20.164Z,2.92
2023-04-28T16:14:49.727Z,2.60
2023-04-28T16:17:16.697Z,2.85
2023-04-28T16:19:43.156Z,3.20
2023-04-28T16:22:09.556Z,2.85
2023-04-28T16:24:35.950Z,2.80
2023-04-28T16:27:02.338Z,3.03
2023-04-28T16:29:28.926Z,2.67
2023-04-28T16:31:55.323Z,2.53
2023-04-28T16:34:21.757Z,2.83
2023-04-28T16:36:48.558Z,2.45
2023-04-28T16:39:14.910Z,2.53
2023-04-28T16:41:41.276Z,2.58
2023-04-28T16:44:07.815Z,2.60
2023-04-28T16:46:34.218Z,2.10
2023-04-28T16:49:00.616Z,2.42
2023-04-28T16:51:27.063Z,2.53
2023-04-28T16:53:53.418Z,2.72
2023-04-28T16:56:19.850Z,2.60
2023-04-28T16:58:46.333Z,2.10
2023-04-28T17:01:12.755Z,2.40
2023-04-28T17:03:39.377Z,2.10
2023-04-28T17:06:06.810Z,2.17
2023-04-28T17:08:33.200Z,2.45
2023-04-28T17:11:05.792Z,1.80
2023-04-28T17:13:35.423Z,2.30
2023-04-28T17:16:01.952Z,1.60
2023-04-28T17:18:28.446Z,1.80
2023-04-28T17:20:56.777Z,1.80
2023-04-28T17:23:23.139Z,1.85
2023-04-28T17:25:49.496Z,1.63
2023-04-28T17:28:16.625Z,2.03
2023-04-28T17:30:47.065Z,2.10
2023-04-28T17:33:13.618Z,1.65
2023-04-28T17:35:40.117Z,2.10
2023-04-28T17:38:06.467Z,1.80
2023-04-28T17:40:32.800Z,1.90
2023-04-28T17:42:59.183Z,3.15
2023-04-28T17:45:25.544Z,3.80
2023-04-28T17:47:51.967Z,1.58
2023-04-28T17:50:18.522Z,1.45
2023-04-28T17:52:44.961Z,1.50
2023-04-28T17:55:11.362Z,1.95
2023-04-28T17:57:37.779Z,1.60
2023-04-28T18:00:04.348Z,1.95
2023-04-28T18:02:31.245Z,1.30
2023-04-28T18:04:57.788Z,1.50
2023-04-28T18:07:24.615Z,1.77
2023-04-28T18:09:51.237Z,1.50
2023-04-28T18:12:17.627Z,1.25
2023-04-28T18:14:44.022Z,1.30
2023-04-28T18:17:11.236Z,1.23
2023-04-28T18:19:37.653Z,1.50
2023-04-28T18:22:04.017Z,3.10
2023-04-28T18:24:30.364Z,1.73
2023-04-28T18:26:56.801Z,1.70
2023-04-28T18:29:23.141Z,1.50
2023-04-28T18:31:49.535Z,1.88
2023-04-28T18:34:15.982Z,1.50
2023-04-28T18:36:42.344Z,1.35
2023-04-28T18:39:09.186Z,1.80
2023-04-28T18:41:36.036Z,1.50
2023-04-28T18:44:02.827Z,1.40
2023-04-28T18:46:29.607Z,1.13
2023-04-28T18:48:58.038Z,1.85
2023-04-28T18:51:24.419Z,1.80
2023-04-28T18:53:50.791Z,1.90
2023-04-28T18:56:17.261Z,8.60
2023-04-28T18:58:43.618Z,2.33
2023-04-28T19:01:16.898Z,1.88
2023-04-28T19:03:44.122Z,2.03
2023-04-28T19:06:10.861Z,3.97
2023-04-28T19:08:37.456Z,3.08
2023-04-28T19:11:03.892Z,2.20
2023-04-28T19:13:30.228Z,2.10
2023-04-28T19:15:56.765Z,2.50
2023-04-28T19:18:23.160Z,2.45
2023-04-28T19:20:49.510Z,1.90
2023-04-28T19:23:16.054Z,2.17
2023-04-28T19:25:42.720Z,1.90
2023-04-28T19:28:09.141Z,1.92
2023-04-28T19:30:35.564Z,2.20
2023-04-28T19:33:02.045Z,2.08
2023-04-28T19:35:28.483Z,2.42
2023-04-28T19:37:54.925Z,2.22
2023-04-28T19:40:21.430Z,1.75
2023-04-28T19:42:47.784Z,1.98
2023-04-28T19:45:14.175Z,1.80
2023-04-28T19:47:41.118Z,1.60
2023-04-28T19:50:07.775Z,1.80
2023-04-28T19:52:34.174Z,1.65
2023-04-28T19:55:00.734Z,2.10
2023-04-28T19:57:27.114Z,2.10
2023-04-28T19:59:53.654Z,2.05
2023-04-28T20:02:20.431Z,2.22
2023-04-28T20:04:47.142Z,2.17
2023-04-28T20:07:13.649Z,2.28
2023-04-28T20:09:40.181Z,1.92
2023-04-28T20:12:07.944Z,1.60
2023-04-28T20:14:34.827Z,1.70
2023-04-28T20:17:02.191Z,2.03
2023-04-28T20:19:28.615Z,1.73
2023-04-28T20:21:55.052Z,1.80
2023-04-28T20:24:21.411Z,1.20
2023-04-28T20:26:47.744Z,1.80
2023-04-28T20:29:14.117Z,1.45
2023-04-28T20:31:40.584Z,1.10
2023-04-28T20:34:07.858Z,1.20
2023-04-28T20:36:34.237Z,1.25
2023-04-28T20:39:01.220Z,1.42
2023-04-28T20:41:27.572Z,1.70
2023-04-28T20:43:53.915Z,1.20
2023-04-28T20:46:20.321Z,1.40
2023-04-28T20:48:46.727Z,1.45
2023-04-28T20:51:13.099Z,1.40
2023-04-28T20:53:39.526Z,1.40
2023-04-28T20:56:06.178Z,0.98
2023-04-28T20:58:32.513Z,1.17
2023-04-28T21:00:58.947Z,1.13
2023-04-28T21:03:25.362Z,1.35
2023-04-28T21:05:51.807Z,1.33
2023-04-28T21:08:18.250Z,1.10
2023-04-28T21:10:44.613Z,1.00
2023-04-28T21:13:10.962Z,1.05
2023-04-28T21:15:37.664Z,0.85
2023-04-28T21:18:04.490Z,1.00
2023-04-28T21:20:30.957Z,0.90
2023-04-28T21:22:57.410Z,1.20
2023-04-28T21:25:24.018Z,1.10
2023-04-28T21:27:50.433Z,1.45
2023-04-28T21:30:16.862Z,1.40
2023-04-28T21:32:43.307Z,0.88
2023-04-28T21:35:09.739Z,1.50
2023-04-28T21:37:36.427Z,1.45
2023-04-28T21:40:03.091Z,1.25
2023-04-28T21:42:29.443Z,1.27
2023-04-28T21:44:55.832Z,0.90
2023-04-28T21:47:22.219Z,0.88
2023-04-28T21:49:48.811Z,0.80
2023-04-28T21:52:16.224Z,0.88
2023-04-28T21:54:42.636Z,0.77
2023-04-28T21:57:08.945Z,0.68
2023-04-28T21:59:35.461Z,0.77
2023-04-28T22:02:02.403Z,0.80
2023-04-28T22:04:29.347Z,0.80
2023-04-28T22:06:55.996Z,0.80
2023-04-28T22:09:22.421Z,0.70
2023-04-28T22:11:48.761Z,0.70
2023-04-28T22:14:34.961Z,0.90
2023-04-28T22:17:01.582Z,0.93
2023-04-28T22:19:28.036Z,0.57
2023-04-28T22:21:54.421Z,0.80
2023-04-28T22:24:20.768Z,0.80
2023-04-28T22:26:47.168Z,0.80
2023-04-28T22:29:13.513Z,0.32
2023-04-28T22:31:39.939Z,1.00
2023-04-28T22:34:06.418Z,0.50
2023-04-28T22:36:32.772Z,0.70
2023-04-28T22:38:59.124Z,0.82
2023-04-28T22:41:25.644Z,0.63
2023-04-28T22:43:52.104Z,0.68
2023-04-28T22:46:18.580Z,0.57
2023-04-28T22:48:45.197Z,0.80
2023-04-28T22:51:11.648Z,0.95
2023-04-28T22:53:38.130Z,0.70
2023-04-28T22:56:04.952Z,0.60
2023-04-28T22:58:31.337Z,0.57
2023-04-28T23:00:59.911Z,0.90
2023-04-28T23:03:26.526Z,0.60
2023-04-28T23:05:52.949Z,0.50
2023-04-28T23:08:19.428Z,0.70
2023-04-28T23:10:45.807Z,0.50
2023-04-28T23:13:12.143Z,0.35
2023-04-28T23:15:38.801Z,0.85
2023-04-28T23:18:05.462Z,0.50
2023-04-28T23:20:33.017Z,0.57
2023-04-28T23:22:59.365Z,0.35
2023-04-28T23:25:25.959Z,1.05
2023-04-28T23:27:52.318Z,0.40
2023-04-28T23:30:18.850Z,0.63
2023-04-28T23:32:45.415Z,0.88
2023-04-28T23:35:11.916Z,0.70
2023-04-28T23:37:38.375Z,0.63
2023-04-28T23:40:05.659Z,0.80
2023-04-28T23:42:32.135Z,0.90
2023-04-28T23:44:58.592Z,0.60
2023-04-28T23:47:25.237Z,1.13
2023-04-28T23:49:51.955Z,0.80
2023-04-28T23:52:18.586Z,0.70
2023-04-28T23:54:45.258Z,0.60
2023-04-28T23:57:11.751Z,0.93
2023-04-28T23:59:38.203Z,0.70
